Time;durP1;ratioP1;P1;durP2;ratioP2;P2;SDS_P1;SDS_P2;PMS_P1;PMS_P2;Temp;Humidity;BMP_temperature;BMP_pressure;BME280_temperature;BME280_humidity;BME280_pressure;Samples;Min_cycle;Max_cycle;Signal;HPM_P1;HPM_P2
2023/06/16 03:02:37;;;;;;;33.40;31.57;;;12.30;99.90;;;;;;4890287;29;20758;-77
2023/06/16 03:05:03;;;;;;;34.73;32.67;;;12.30;99.90;;;;;;4896860;29;20294;-78
2023/06/16 03:07:34;;;;;;;36.73;34.73;;;12.30;99.90;;;;;;4897635;29;20195;-77
2023/06/16 03:10:00;;;;;;;35.87;33.37;;;12.40;99.90;;;;;;4898188;29;20195;-78
2023/06/16 03:12:26;;;;;;;23.63;21.70;;;12.40;99.90;;;;;;4897858;29;20211;-77
2023/06/16 03:14:52;;;;;;;12.57;11.67;;;12.60;99.90;;;;;;4885321;23;20239;-78
2023/06/16 03:17:20;;;;;;;27.57;25.97;;;12.70;99.90;;;;;;4878260;29;20239;-78
2023/06/16 03:19:47;;;;;;;62.20;58.90;;;12.80;99.90;;;;;;4878767;29;20200;-77
2023/06/16 03:22:13;;;;;;;39.23;37.03;;;12.80;99.90;;;;;;4879644;29;20303;-78
2023/06/16 03:24:41;;;;;;;38.17;35.83;;;12.80;99.90;;;;;;4886704;29;20280;-77
2023/06/16 03:27:08;;;;;;;47.53;44.83;;;12.70;99.90;;;;;;4890910;29;20215;-77
2023/06/16 03:29:34;;;;;;;101.07;95.17;;;12.60;99.90;;;;;;4873269;29;20679;-78
2023/06/16 03:32:00;;;;;;;58.83;55.13;;;12.60;99.90;;;;;;4862152;29;20220;-78
2023/06/16 03:34:29;;;;;;;105.37;99.73;;;12.60;99.90;;;;;;4878984;29;20222;-77
2023/06/16 03:36:55;;;;;;;79.33;74.80;;;12.50;99.90;;;;;;4860525;29;20220;-78
2023/06/16 03:39:21;;;;;;;56.27;52.60;;;12.50;99.90;;;;;;4877777;29;20196;-77
2023/06/16 03:41:47;;;;;;;51.83;48.73;;;12.50;99.90;;;;;;4868219;29;20248;-77
2023/06/16 03:44:13;;;;;;;53.67;50.20;;;12.50;99.90;;;;;;4886471;29;20212;-77
2023/06/16 03:46:38;;;;;;;48.87;46.23;;;12.50;99.90;;;;;;4874184;29;20274;-77
2023/06/16 03:49:04;;;;;;;47.13;44.57;;;12.40;99.90;;;;;;4873315;29;20231;-77
2023/06/16 03:51:31;;;;;;;49.30;46.27;;;12.40;99.90;;;;;;4892699;29;20256;-77
2023/06/16 03:53:58;;;;;;;75.47;71.07;;;12.40;99.90;;;;;;4892848;29;20296;-77
2023/06/16 03:56:24;;;;;;;80.67;75.77;;;12.50;99.90;;;;;;4878551;29;20277;-78
2023/06/16 03:58:49;;;;;;;75.43;70.17;;;12.60;99.90;;;;;;4865645;29;20220;-78
2023/06/16 04:01:20;;;;;;;108.43;100.83;;;12.70;99.90;;;;;;4865257;29;20695;-78
2023/06/16 04:03:46;;;;;;;110.07;104.23;;;12.70;99.90;;;;;;4870503;29;20212;-77
2023/06/16 04:06:12;;;;;;;90.27;85.43;;;12.70;99.90;;;;;;4889745;29;20677;-77
2023/06/16 04:08:38;;;;;;;53.90;50.93;;;12.70;99.90;;;;;;4891491;29;20249;-77
2023/06/16 04:11:04;;;;;;;36.83;34.70;;;12.80;99.90;;;;;;4889334;29;20572;-77
2023/06/16 04:13:33;;;;;;;40.00;37.60;;;12.80;99.90;;;;;;4883153;29;20228;-77
2023/06/16 04:15:59;;;;;;;36.50;34.20;;;12.80;99.90;;;;;;4882055;29;20637;-80
2023/06/16 04:18:25;;;;;;;35.87;33.70;;;12.70;99.90;;;;;;4864585;29;20193;-78
2023/06/16 04:20:51;;;;;;;34.30;32.27;;;12.70;99.90;;;;;;4858184;29;20589;-77
2023/06/16 04:23:18;;;;;;;35.03;32.80;;;12.80;99.90;;;;;;4876919;29;20606;-78
2023/06/16 04:25:43;;;;;;;30.40;28.43;;;12.90;99.90;;;;;;4862407;29;20593;-78
2023/06/16 04:28:13;;;;;;;56.00;52.80;;;13.00;99.90;;;;;;4870680;29;20200;-78
2023/06/16 04:30:43;;;;;;;20.30;19.00;;;13.10;99.90;;;;;;4862694;29;20207;-77
2023/06/16 04:33:10;;;;;;;17.80;16.07;;;13.10;99.90;;;;;;4881829;29;20220;-79
2023/06/16 04:35:36;;;;;;;18.90;17.67;;;13.20;99.90;;;;;;4882499;29;20237;-79
2023/06/16 04:38:06;;;;;;;35.53;33.27;;;13.30;99.90;;;;;;4865097;29;20202;-79
2023/06/16 04:40:32;;;;;;;14.37;13.30;;;13.40;99.90;;;;;;4882014;29;20255;-79
2023/06/16 04:42:58;;;;;;;18.67;17.00;;;13.50;99.90;;;;;;4885522;29;20291;-78
2023/06/16 04:45:24;;;;;;;21.90;20.23;;;13.70;99.90;;;;;;4868767;29;20220;-79
2023/06/16 04:47:53;;;;;;;19.90;18.20;;;13.70;99.90;;;;;;4865323;29;20683;-79
2023/06/16 04:50:19;;;;;;;24.40;22.73;;;13.80;99.90;;;;;;4865207;29;20202;-78
2023/06/16 04:52:47;;;;;;;11.20;10.23;;;13.90;99.90;;;;;;4881851;29;20592;-78
2023/06/16 04:55:16;;;;;;;10.83;9.90;;;14.00;99.90;;;;;;4864854;29;20223;-78
2023/06/16 04:57:43;;;;;;;45.97;43.33;;;14.20;99.90;;;;;;4863857;29;20653;-79
2023/06/16 05:00:09;;;;;;;42.43;39.83;;;14.40;99.90;;;;;;4865164;29;20196;-77
2023/06/16 05:02:37;;;;;;;111.50;105.37;;;14.50;99.90;;;;;;4881256;29;20252;-78
2023/06/16 05:05:03;;;;;;;15.30;14.30;;;14.70;99.90;;;;;;4885524;29;20216;-79
2023/06/16 05:07:29;;;;;;;25.07;23.53;;;15.00;99.90;;;;;;4879988;29;20196;-77
2023/06/16 05:09:55;;;;;;;77.17;73.00;;;15.40;99.90;;;;;;4882581;29;20208;-77
2023/06/16 05:12:21;;;;;;;23.23;21.77;;;15.80;99.90;;;;;;4882185;29;20268;-78
2023/06/16 05:14:47;;;;;;;17.63;16.07;;;16.30;99.90;;;;;;4864295;29;20619;-78
2023/06/16 05:17:13;;;;;;;10.20;9.40;;;16.80;99.90;;;;;;4888583;29;20203;-78
2023/06/16 05:19:38;;;;;;;13.00;11.95;;;17.40;99.90;;;;;;4886786;29;20192;-78
2023/06/16 05:22:04;;;;;;;10.85;9.85;;;17.90;99.90;;;;;;4889162;29;20230;-78
2023/06/16 05:24:30;;;;;;;10.10;9.38;;;18.20;99.90;;;;;;4865705;29;20709;-78
2023/06/16 05:26:56;;;;;;;24.77;23.25;;;18.60;99.90;;;;;;4882806;29;20236;-80
2023/06/16 05:29:22;;;;;;;16.42;15.32;;;18.90;99.90;;;;;;4886402;29;20196;-78
2023/06/16 05:31:47;;;;;;;11.88;11.07;;;19.30;99.90;;;;;;4884790;29;20309;-78
2023/06/16 05:34:13;;;;;;;18.25;16.73;;;19.60;99.90;;;;;;4886199;29;20209;-79
2023/06/16 05:36:39;;;;;;;30.27;28.27;;;19.80;99.90;;;;;;4893890;29;20204;-80
2023/06/16 05:39:10;;;;;;;26.25;24.65;;;20.00;99.90;;;;;;4882048;29;20196;-78
2023/06/16 05:41:36;;;;;;;21.13;19.90;;;20.20;99.90;;;;;;4881553;29;20234;-80
2023/06/16 05:44:02;;;;;;;19.45;18.25;;;20.50;99.90;;;;;;4853495;29;20220;-77
2023/06/16 05:46:27;;;;;;;27.48;25.88;;;20.60;99.90;;;;;;4887301;29;20200;-79
2023/06/16 05:48:54;;;;;;;14.75;13.82;;;20.70;99.90;;;;;;4867866;29;20191;-77
2023/06/16 05:51:20;;;;;;;11.20;10.35;;;21.00;99.90;;;;;;4877380;29;20422;-78
2023/06/16 05:53:46;;;;;;;8.52;7.93;;;21.30;99.90;;;;;;4882018;29;20626;-77
2023/06/16 05:56:11;;;;;;;8.10;7.30;;;21.60;99.90;;;;;;4881356;29;20684;-80
2023/06/16 05:58:37;;;;;;;8.50;7.80;;;21.70;99.90;;;;;;4881320;29;20409;-78
2023/06/16 06:01:04;;;;;;;10.57;9.52;;;21.90;99.90;;;;;;4882773;29;20201;-79
2023/06/16 06:03:30;;;;;;;15.93;14.90;;;22.10;99.90;;;;;;4864822;29;20192;-80
2023/06/16 06:05:56;;;;;;;13.90;12.85;;;22.60;99.90;;;;;;4882942;29;20697;-79
2023/06/16 06:08:26;;;;;;;9.85;9.23;;;22.60;99.80;;;;;;4881975;29;20195;-79
2023/06/16 06:10:52;;;;;;;9.38;8.43;;;22.70;99.30;;;;;;4882481;29;20196;-78
2023/06/16 06:13:18;;;;;;;8.00;7.30;;;22.80;98.80;;;;;;4881570;29;20688;-78
2023/06/16 06:15:44;;;;;;;8.20;7.70;;;22.60;98.20;;;;;;4872616;29;20245;-78
2023/06/16 06:18:10;;;;;;;7.55;6.90;;;22.60;98.50;;;;;;4879558;29;20212;-77
2023/06/16 06:20:38;;;;;;;7.82;7.22;;;22.50;98.90;;;;;;4863692;29;20336;-78
2023/06/16 06:23:04;;;;;;;7.82;7.13;;;22.80;98.10;;;;;;4872897;29;20196;-78
2023/06/16 06:25:30;;;;;;;8.70;6.97;;;23.40;96.20;;;;;;4870037;29;20299;-78
2023/06/16 06:27:56;;;;;;;8.38;7.68;;;23.40;95.60;;;;;;4882783;29;20200;-79
2023/06/16 06:30:22;;;;;;;9.90;8.32;;;23.80;95.90;;;;;;4882171;29;20200;-78
2023/06/16 06:32:47;;;;;;;8.30;7.65;;;24.40;94.10;;;;;;4881276;29;20215;-78
2023/06/16 06:35:13;;;;;;;8.50;7.90;;;24.80;92.70;;;;;;4882069;29;20216;-78
2023/06/16 06:37:39;;;;;;;8.70;8.10;;;24.90;91.70;;;;;;4885156;29;20231;-79
2023/06/16 06:40:06;;;;;;;12.75;11.77;;;25.20;91.80;;;;;;4882770;29;20196;-79
2023/06/16 06:42:32;;;;;;;12.90;11.95;;;25.10;91.10;;;;;;4881799;29;20243;-79
2023/06/16 06:44:57;;;;;;;16.08;14.82;;;25.20;90.20;;;;;;4866833;29;20220;-78
2023/06/16 06:47:23;;;;;;;18.40;17.17;;;25.20;89.30;;;;;;4867275;29;20647;-78
2023/06/16 06:49:49;;;;;;;18.02;16.63;;;25.30;89.30;;;;;;4884756;29;20200;-77
2023/06/16 06:52:16;;;;;;;14.52;13.55;;;25.40;88.40;;;;;;4885394;29;20712;-78
2023/06/16 06:54:41;;;;;;;17.40;16.27;;;25.40;88.40;;;;;;4883477;29;20220;-78
2023/06/16 06:57:07;;;;;;;13.30;12.40;;;25.40;87.60;;;;;;4883063;29;20192;-78
2023/06/16 06:59:33;;;;;;;14.20;13.23;;;25.80;87.30;;;;;;4883545;29;20231;-79
2023/06/16 07:01:59;;;;;;;9.35;8.68;;;26.00;87.20;;;;;;4865005;29;20216;-78
2023/06/16 07:04:26;;;;;;;8.73;8.13;;;26.20;84.30;;;;;;4881753;29;20220;-78
2023/06/16 07:06:51;;;;;;;8.85;8.00;;;26.30;85.40;;;;;;4862740;29;20193;-78
2023/06/16 07:09:17;;;;;;;7.68;6.85;;;26.60;84.10;;;;;;4867554;29;20200;-77
2023/06/16 07:11:43;;;;;;;7.53;6.93;;;26.70;83.10;;;;;;4882538;29;20203;-78
2023/06/16 07:14:10;;;;;;;7.65;6.97;;;26.90;82.00;;;;;;4868531;29;20232;-78
2023/06/16 07:16:36;;;;;;;6.82;6.20;;;27.10;81.50;;;;;;4867950;29;20264;-78
2023/06/16 07:19:02;;;;;;;8.55;7.90;;;27.40;81.90;;;;;;4876677;29;20604;-78
2023/06/16 07:21:28;;;;;;;11.02;10.15;;;27.50;78.80;;;;;;4871031;29;20188;-77
2023/06/16 07:23:54;;;;;;;16.10;14.82;;;27.80;77.00;;;;;;4882054;29;20715;-78
2023/06/16 07:26:20;;;;;;;10.50;9.68;;;27.80;75.20;;;;;;4892533;29;20279;-78
2023/06/16 07:28:45;;;;;;;16.80;15.50;;;27.90;76.00;;;;;;4872141;29;20548;-79
2023/06/16 07:31:11;;;;;;;16.48;15.35;;;27.80;74.10;;;;;;4886070;29;20185;-79
2023/06/16 07:33:37;;;;;;;13.55;12.68;;;27.40;75.00;;;;;;4885333;29;20226;-79
2023/06/16 07:36:03;;;;;;;16.02;14.88;;;27.40;75.60;;;;;;4885211;29;20688;-79
2023/06/16 07:38:28;;;;;;;15.38;14.38;;;27.50;74.40;;;;;;4860403;29;20196;-78
2023/06/16 07:40:54;;;;;;;14.15;13.18;;;27.50;74.30;;;;;;4885597;29;20215;-78
2023/06/16 07:43:21;;;;;;;11.82;10.73;;;27.30;74.00;;;;;;4886133;29;20216;-79
2023/06/16 07:45:47;;;;;;;22.15;20.17;;;27.40;75.30;;;;;;4885083;29;20665;-79
2023/06/16 07:48:14;;;;;;;22.08;20.48;;;27.80;75.00;;;;;;4868027;29;20196;-79
2023/06/16 07:50:40;;;;;;;16.75;15.63;;;28.00;74.60;;;;;;4880583;29;20224;-79
2023/06/16 07:53:06;;;;;;;17.25;16.17;;;28.20;72.70;;;;;;4868261;29;20262;-79
2023/06/16 07:55:32;;;;;;;11.55;10.55;;;28.50;72.10;;;;;;4888724;29;20212;-79
2023/06/16 07:57:58;;;;;;;10.02;9.18;;;28.60;71.20;;;;;;4872144;29;20196;-79
2023/06/16 08:00:24;;;;;;;10.40;9.70;;;28.60;70.60;;;;;;4886229;29;20542;-79
2023/06/16 08:02:50;;;;;;;10.13;8.95;;;28.70;71.40;;;;;;4887697;29;20199;-79
2023/06/16 08:05:16;;;;;;;8.65;8.10;;;29.00;70.10;;;;;;4866645;29;20212;-79
2023/06/16 08:07:43;;;;;;;8.50;7.70;;;29.10;69.00;;;;;;4887252;29;20558;-80
2023/06/16 08:10:09;;;;;;;7.30;6.75;;;28.80;68.00;;;;;;4870407;29;20196;-79
2023/06/16 08:12:35;;;;;;;8.52;7.75;;;29.20;67.40;;;;;;4887039;29;20255;-80
2023/06/16 08:15:03;;;;;;;6.97;6.43;;;29.30;65.70;;;;;;4871153;29;20224;-80
2023/06/16 08:17:29;;;;;;;7.53;7.03;;;29.30;66.20;;;;;;4860848;29;20208;-80
2023/06/16 08:19:55;;;;;;;8.18;7.32;;;29.40;65.30;;;;;;4886355;29;20192;-80
2023/06/16 08:22:21;;;;;;;11.98;11.15;;;29.40;63.60;;;;;;4886900;29;20196;-79
2023/06/16 08:24:47;;;;;;;8.45;7.88;;;29.40;61.40;;;;;;4885057;29;20219;-80
2023/06/16 08:27:13;;;;;;;8.80;8.00;;;28.80;63.30;;;;;;4884937;29;20204;-80
2023/06/16 08:29:39;;;;;;;7.57;6.88;;;29.10;63.60;;;;;;4885889;29;20223;-79
2023/06/16 08:32:06;;;;;;;8.63;7.55;;;29.30;64.00;;;;;;4886529;29;20219;-78
2023/06/16 08:34:33;;;;;;;8.63;7.82;;;29.60;61.40;;;;;;4878601;29;20240;-79
2023/06/16 08:37:01;;;;;;;8.73;8.13;;;29.60;60.50;;;;;;4885257;29;20189;-79
2023/06/16 08:39:27;;;;;;;34.17;32.28;;;29.50;60.40;;;;;;4868285;29;20196;-79
2023/06/16 08:41:53;;;;;;;32.30;30.55;;;29.20;51.10;;;;;;4885841;29;20193;-80
2023/06/16 08:44:21;;;;;;;28.17;26.63;;;29.10;51.30;;;;;;4884115;29;20586;-78
2023/06/16 08:46:48;;;;;;;42.97;40.78;;;29.10;49.80;;;;;;4889195;29;20197;-79
2023/06/16 08:49:15;;;;;;;32.35;30.08;;;28.60;51.10;;;;;;4891050;29;20192;-79
2023/06/16 08:51:48;;;;;;;17.45;16.38;;;28.50;50.30;;;;;;4871446;29;20228;-79
2023/06/16 08:54:14;;;;;;;10.88;10.02;;;28.40;52.70;;;;;;4881584;29;20209;-79
2023/06/16 08:56:43;;;;;;;7.72;7.05;;;28.00;54.60;;;;;;4866642;29;20208;-79
2023/06/16 08:59:11;;;;;;;8.80;7.95;;;28.10;55.80;;;;;;4869845;29;20192;-79
2023/06/16 09:01:39;;;;;;;10.07;9.32;;;28.30;53.70;;;;;;4892919;29;20188;-77
2023/06/16 09:04:09;;;;;;;11.85;11.05;;;28.80;53.10;;;;;;4895257;29;20231;-79
2023/06/16 09:06:44;;;;;;;23.52;22.20;;;29.40;52.10;;;;;;4896019;29;20645;-79
2023/06/16 09:09:10;;;;;;;24.55;23.23;;;29.20;49.60;;;;;;4874367;29;20211;-78
2023/06/16 09:11:35;;;;;;;21.50;20.38;;;29.00;50.00;;;;;;4889316;29;20364;-80
2023/06/16 09:14:13;;;;;;;30.02;28.23;;;29.30;50.60;;;;;;4876397;23;20736;-82
2023/06/16 09:16:39;;;;;;;29.10;27.45;;;29.10;48.70;;;;;;4895628;29;20643;-82
2023/06/16 09:19:09;;;;;;;29.48;27.92;;;29.20;49.00;;;;;;4897253;29;20198;-82
2023/06/16 09:21:36;;;;;;;30.40;28.65;;;29.30;49.30;;;;;;4899496;29;20192;-82
2023/06/16 09:24:03;;;;;;;31.35;29.52;;;29.20;49.30;;;;;;4892792;29;20213;-82
2023/06/16 09:26:38;;;;;;;30.35;28.58;;;29.30;49.00;;;;;;4875421;29;20196;-81
2023/06/16 09:29:24;;;;;;;26.25;24.75;;;29.50;47.80;;;;;;4878889;29;20196;-82
2023/06/16 09:31:50;;;;;;;27.88;25.92;;;29.50;48.10;;;;;;4884614;29;20657;-82
2023/06/16 09:34:16;;;;;;;31.25;29.23;;;29.80;48.40;;;;;;4873174;29;20212;-80
2023/06/16 09:36:42;;;;;;;31.08;29.48;;;29.80;48.20;;;;;;4881924;29;20192;-80
2023/06/16 09:39:27;;;;;;;30.13;28.17;;;29.40;48.50;;;;;;4884980;29;20239;-79
2023/06/16 09:41:53;;;;;;;24.70;23.45;;;29.90;48.60;;;;;;4880823;29;20199;-80
2023/06/16 09:44:23;;;;;;;13.98;12.90;;;30.40;48.50;;;;;;4879625;29;20224;-80
2023/06/16 09:46:49;;;;;;;10.73;9.95;;;30.50;46.60;;;;;;4879736;29;20203;-79
2023/06/16 09:49:23;;;;;;;8.70;7.90;;;30.30;45.60;;;;;;4878685;29;20194;-79
2023/06/16 09:51:51;;;;;;;8.68;8.00;;;29.90;46.30;;;;;;4864261;29;20366;-80
2023/06/16 09:54:19;;;;;;;8.73;7.85;;;29.60;46.20;;;;;;4878724;29;20215;-80
2023/06/16 09:56:45;;;;;;;7.05;6.55;;;29.90;46.70;;;;;;4879251;29;20196;-80
2023/06/16 09:59:11;;;;;;;9.77;8.20;;;30.00;45.60;;;;;;4878694;29;20188;-80
2023/06/16 10:01:40;;;;;;;6.05;5.53;;;29.80;44.50;;;;;;4879106;29;20205;-79
2023/06/16 10:04:09;;;;;;;8.13;7.32;;;29.40;45.70;;;;;;4872166;29;20272;-79
2023/06/16 10:07:02;;;;;;;6.43;6.03;;;29.60;45.80;;;;;;4878963;29;20252;-79
2023/06/16 10:09:35;;;;;;;7.18;6.65;;;29.90;45.60;;;;;;4879967;29;20295;-80
2023/06/16 10:12:02;;;;;;;7.53;6.78;;;30.10;45.60;;;;;;4875940;29;20658;-81
2023/06/16 10:14:33;;;;;;;8.13;7.43;;;30.50;45.40;;;;;;4875372;29;20232;-81
2023/06/16 10:17:00;;;;;;;7.40;5.15;;;31.00;44.30;;;;;;4880042;29;20200;-81
2023/06/16 10:19:28;;;;;;;6.38;5.90;;;30.90;44.40;;;;;;4879026;29;20197;-80
2023/06/16 10:21:55;;;;;;;7.22;5.35;;;30.50;44.70;;;;;;4878606;29;20208;-81
2023/06/16 10:24:21;;;;;;;8.55;7.07;;;30.90;44.50;;;;;;4878362;29;20216;-80
2023/06/16 10:26:49;;;;;;;7.97;7.28;;;30.70;44.20;;;;;;4878450;29;20279;-80
2023/06/16 10:29:17;;;;;;;6.47;5.93;;;30.50;44.80;;;;;;4879820;29;20193;-81
2023/06/16 10:31:44;;;;;;;9.38;6.65;;;30.70;44.70;;;;;;4871016;29;20197;-81
2023/06/16 10:34:21;;;;;;;9.65;8.75;;;31.10;44.50;;;;;;4878026;29;20295;-81
2023/06/16 10:36:51;;;;;;;8.57;7.85;;;30.60;44.20;;;;;;4879492;29;20295;-80
2023/06/16 10:39:18;;;;;;;9.05;5.68;;;29.60;44.70;;;;;;4879169;29;20600;-81
2023/06/16 10:41:51;;;;;;;12.32;11.30;;;28.50;45.70;;;;;;4879772;29;20355;-80
2023/06/16 10:44:23;;;;;;;26.88;25.33;;;27.70;48.30;;;;;;4886389;29;20227;-80
2023/06/16 10:47:10;;;;;;;12.60;11.80;;;28.60;46.80;;;;;;4880829;29;20661;-81
2023/06/16 10:50:09;;;;;;;10.75;8.88;;;29.60;45.10;;;;;;4875573;29;20197;-80
2023/06/16 10:52:51;;;;;;;7.25;5.85;;;30.00;44.80;;;;;;4842689;29;20220;-80
2023/06/16 10:55:33;;;;;;;8.77;6.75;;;30.10;44.70;;;;;;4872420;29;20219;-81
2023/06/16 10:58:19;;;;;;;8.35;6.82;;;29.60;43.90;;;;;;4877710;29;20216;-80
2023/06/16 11:00:45;;;;;;;6.43;6.03;;;29.50;45.50;;;;;;4893489;29;20195;-80
2023/06/16 11:03:11;;;;;;;9.80;7.82;;;30.40;44.60;;;;;;4873326;29;20621;-80
2023/06/16 11:05:41;;;;;;;8.80;7.93;;;31.60;44.80;;;;;;4880804;29;20296;-79
2023/06/16 11:08:08;;;;;;;9.52;8.73;;;31.20;43.40;;;;;;4882666;29;20650;-80
2023/06/16 11:11:07;;;;;;;8.25;7.55;;;30.90;43.80;;;;;;4886840;29;20193;-80
2023/06/16 11:13:39;;;;;;;8.88;6.35;;;30.70;43.50;;;;;;4846450;29;20247;-80
2023/06/16 11:16:07;;;;;;;9.02;7.10;;;31.30;44.90;;;;;;4878522;29;20219;-80
2023/06/16 11:18:33;;;;;;;21.45;20.15;;;31.60;43.90;;;;;;4883077;29;20229;-80
2023/06/16 11:21:06;;;;;;;21.55;19.83;;;31.60;42.00;;;;;;4880902;29;20200;-79
2023/06/16 11:23:34;;;;;;;24.00;22.58;;;31.60;42.60;;;;;;4876423;29;20224;-79
2023/06/16 11:26:20;;;;;;;21.65;20.17;;;31.60;41.80;;;;;;4887998;29;20204;-79
2023/06/16 11:28:48;;;;;;;24.33;22.83;;;31.30;42.30;;;;;;4881538;29;20638;-80
2023/06/16 11:31:14;;;;;;;23.83;22.35;;;31.50;42.60;;;;;;4876416;29;20820;-79
2023/06/16 11:33:41;;;;;;;22.65;21.23;;;31.90;41.60;;;;;;4876155;29;20232;-79
2023/06/16 11:36:18;;;;;;;23.90;22.65;;;32.70;41.90;;;;;;4876303;29;20188;-80
2023/06/16 11:38:51;;;;;;;26.80;25.00;;;33.40;41.00;;;;;;4876148;29;20216;-79
2023/06/16 11:41:22;;;;;;;18.83;17.23;;;32.50;39.70;;;;;;4877522;29;20197;-79
2023/06/16 11:43:50;;;;;;;23.40;21.90;;;32.00;39.60;;;;;;4875253;29;20214;-80
2023/06/16 11:46:22;;;;;;;23.63;22.08;;;32.10;40.00;;;;;;4874683;29;20697;-79
2023/06/16 11:48:48;;;;;;;18.00;16.77;;;32.70;39.70;;;;;;4875170;29;20196;-80
2023/06/16 11:51:14;;;;;;;12.57;11.60;;;33.20;38.80;;;;;;4872343;29;20281;-80
2023/06/16 11:53:40;;;;;;;14.50;13.70;;;32.90;39.10;;;;;;4874657;29;20276;-79
2023/06/16 11:56:14;;;;;;;28.98;27.48;;;32.10;39.40;;;;;;4883348;29;20188;-79
2023/06/16 11:58:43;;;;;;;24.73;23.40;;;31.30;40.50;;;;;;4881313;29;20952;-80
2023/06/16 12:01:13;;;;;;;29.17;27.45;;;31.20;40.90;;;;;;4883222;29;20197;-80
2023/06/16 12:03:41;;;;;;;24.50;23.17;;;31.40;41.20;;;;;;4882838;29;20279;-80
2023/06/16 12:06:07;;;;;;;23.25;21.75;;;32.60;39.90;;;;;;4867080;29;20193;-80
2023/06/16 12:08:41;;;;;;;10.43;9.48;;;33.40;40.10;;;;;;4882047;29;20196;-79
2023/06/16 12:11:09;;;;;;;20.90;19.65;;;32.70;38.10;;;;;;4882332;29;20200;-79
2023/06/16 12:13:37;;;;;;;18.17;17.13;;;32.40;39.90;;;;;;4882261;29;20314;-80
2023/06/16 12:16:08;;;;;;;19.25;17.85;;;32.60;39.90;;;;;;4881468;29;20220;-80
2023/06/16 12:18:34;;;;;;;7.88;7.18;;;33.50;39.70;;;;;;4881501;29;20197;-80
2023/06/16 12:21:23;;;;;;;7.00;6.50;;;33.90;38.20;;;;;;4883146;29;20195;-80
2023/06/16 12:24:05;;;;;;;6.72;6.05;;;33.50;39.80;;;;;;4881823;29;20228;-80
2023/06/16 12:26:40;;;;;;;7.53;6.95;;;33.50;39.00;;;;;;4882427;29;20200;-80
2023/06/16 12:29:14;;;;;;;12.35;11.45;;;32.60;39.80;;;;;;4880751;29;20649;-80
2023/06/16 12:32:00;;;;;;;28.75;27.25;;;32.10;40.40;;;;;;4880861;29;20255;-80
2023/06/16 12:34:35;;;;;;;33.13;31.13;;;31.80;41.50;;;;;;4880386;29;20212;-80
2023/06/16 12:37:12;;;;;;;25.98;24.42;;;30.70;41.50;;;;;;4882625;29;20192;-79
2023/06/16 12:39:40;;;;;;;28.10;26.45;;;31.10;41.70;;;;;;4882723;29;20679;-79
2023/06/16 12:42:07;;;;;;;22.65;21.17;;;31.80;40.60;;;;;;4881772;29;20208;-79
2023/06/16 12:44:47;;;;;;;18.63;17.05;;;32.70;38.70;;;;;;4888571;29;20213;-80
2023/06/16 12:47:15;;;;;;;15.57;14.30;;;32.90;38.70;;;;;;4881038;29;20211;-80
2023/06/16 12:49:41;;;;;;;9.52;8.05;;;33.00;38.60;;;;;;4881063;29;20248;-80
2023/06/16 12:52:08;;;;;;;8.73;7.53;;;33.30;38.10;;;;;;4880667;29;20689;-80
2023/06/16 12:54:34;;;;;;;5.60;4.88;;;33.90;38.10;;;;;;4880341;29;20235;-80
2023/06/16 12:57:00;;;;;;;5.22;4.70;;;34.20;37.30;;;;;;4881142;29;20188;-80
2023/06/16 12:59:26;;;;;;;7.72;5.35;;;34.60;37.50;;;;;;4872530;29;20212;-80
2023/06/16 13:01:52;;;;;;;10.93;9.48;;;34.70;37.20;;;;;;4881340;29;20193;-80
2023/06/16 13:04:18;;;;;;;9.70;9.10;;;34.50;36.70;;;;;;4869986;29;20561;-80
2023/06/16 13:06:44;;;;;;;10.32;9.63;;;34.50;37.50;;;;;;4895333;29;20227;-80
2023/06/16 13:09:10;;;;;;;12.48;11.68;;;35.00;37.20;;;;;;4899757;29;20276;-80
2023/06/16 13:11:35;;;;;;;17.88;16.80;;;35.90;36.80;;;;;;4894760;29;20689;-80
2023/06/16 13:14:04;;;;;;;12.93;11.73;;;36.40;37.00;;;;;;4894094;29;20799;-80
2023/06/16 13:16:32;;;;;;;13.63;12.43;;;37.10;36.80;;;;;;4879533;29;20188;-80
2023/06/16 13:18:58;;;;;;;14.18;13.38;;;36.40;34.70;;;;;;4880893;29;20192;-80
2023/06/16 13:21:24;;;;;;;16.70;15.43;;;35.50;35.50;;;;;;4882679;29;20267;-80
2023/06/16 13:23:50;;;;;;;20.02;18.48;;;34.50;36.80;;;;;;4881432;29;20196;-80
2023/06/16 13:26:22;;;;;;;22.25;20.73;;;34.80;36.70;;;;;;4881711;29;20200;-80
2023/06/16 13:28:51;;;;;;;18.17;16.88;;;34.90;36.20;;;;;;4879465;29;20199;-80
2023/06/16 13:31:16;;;;;;;22.60;20.95;;;34.60;37.90;;;;;;4879875;29;20203;-80
2023/06/16 13:33:42;;;;;;;17.83;16.27;;;34.90;37.00;;;;;;4880509;29;20220;-80
2023/06/16 13:36:17;;;;;;;21.02;19.52;;;35.30;36.90;;;;;;4880280;29;20219;-79
2023/06/16 13:38:44;;;;;;;17.63;16.65;;;34.50;38.00;;;;;;4879392;29;20202;-80
2023/06/16 13:41:10;;;;;;;24.10;22.50;;;34.30;37.70;;;;;;4873356;29;20181;-80
2023/06/16 13:43:36;;;;;;;21.30;20.13;;;34.40;38.40;;;;;;4885237;29;20211;-81
2023/06/16 13:46:02;;;;;;;9.23;8.60;;;34.30;37.90;;;;;;4873840;29;20212;-80
2023/06/16 13:48:28;;;;;;;10.50;9.90;;;33.80;39.00;;;;;;4879747;29;20343;-80
2023/06/16 13:50:54;;;;;;;18.25;16.77;;;34.40;37.80;;;;;;4897110;29;20212;-80
2023/06/16 13:53:20;;;;;;;16.67;15.43;;;34.70;36.90;;;;;;4885310;29;20223;-80
2023/06/16 13:55:46;;;;;;;17.90;16.65;;;35.20;36.90;;;;;;4886420;29;20264;-79
2023/06/16 13:58:12;;;;;;;18.52;17.38;;;35.20;36.70;;;;;;4885054;29;20220;-80
2023/06/16 14:00:38;;;;;;;19.85;18.35;;;35.60;36.10;;;;;;4881716;29;20213;-80
2023/06/16 14:03:04;;;;;;;21.98;20.38;;;35.60;36.60;;;;;;4873820;29;20287;-80
2023/06/16 14:05:30;;;;;;;19.60;18.13;;;35.60;36.70;;;;;;4880268;29;20394;-80
2023/06/16 14:07:56;;;;;;;21.42;19.98;;;35.40;37.10;;;;;;4878557;29;20606;-80
2023/06/16 14:10:22;;;;;;;14.80;13.70;;;34.50;36.70;;;;;;4879130;29;20199;-80
2023/06/16 14:12:48;;;;;;;12.55;7.75;;;32.90;38.90;;;;;;4879957;29;20220;-80
2023/06/16 14:15:14;;;;;;;6.03;5.53;;;32.90;40.30;;;;;;4874263;29;20228;-80
2023/06/16 14:17:41;;;;;;;6.28;5.50;;;33.40;39.50;;;;;;4876768;29;20196;-81
2023/06/16 14:20:11;;;;;;;6.28;5.68;;;33.80;39.10;;;;;;4880022;29;20212;-80
2023/06/16 14:22:37;;;;;;;6.20;5.70;;;33.20;38.80;;;;;;4879939;29;20198;-80
2023/06/16 14:25:04;;;;;;;7.68;5.95;;;32.30;39.90;;;;;;4879734;29;20545;-81
2023/06/16 14:27:31;;;;;;;10.27;5.97;;;32.80;40.00;;;;;;4880434;29;20256;-80
2023/06/16 14:29:57;;;;;;;6.10;5.43;;;33.10;38.00;;;;;;4878948;29;20218;-81
2023/06/16 14:32:23;;;;;;;5.78;5.03;;;33.70;39.10;;;;;;4880726;29;20593;-80
2023/06/16 14:34:49;;;;;;;6.65;6.05;;;33.90;39.30;;;;;;4878663;29;20291;-80
2023/06/16 14:37:15;;;;;;;6.38;5.57;;;34.20;38.30;;;;;;4879472;29;20205;-81
2023/06/16 14:39:41;;;;;;;8.18;7.47;;;34.60;38.20;;;;;;4879993;29;20191;-81
2023/06/16 14:42:07;;;;;;;10.60;7.82;;;35.20;38.20;;;;;;4884405;29;20196;-81
2023/06/16 14:44:32;;;;;;;8.25;7.53;;;34.80;37.50;;;;;;4885459;29;20613;-81
2023/06/16 14:46:58;;;;;;;6.63;6.03;;;33.70;38.60;;;;;;4878883;29;20196;-81
2023/06/16 14:49:24;;;;;;;6.82;6.25;;;32.20;39.40;;;;;;4879123;29;20198;-81
2023/06/16 14:51:50;;;;;;;37.17;34.25;;;30.80;41.10;;;;;;4879762;29;20200;-80
2023/06/16 14:54:15;;;;;;;41.20;38.78;;;29.70;44.10;;;;;;4878835;29;20231;-80
2023/06/16 14:56:41;;;;;;;33.72;31.50;;;29.70;44.50;;;;;;4879625;29;20199;-80
2023/06/16 14:59:07;;;;;;;22.40;20.88;;;31.10;43.20;;;;;;4885543;29;20188;-79
2023/06/16 15:01:33;;;;;;;25.88;24.35;;;32.00;40.90;;;;;;4877447;29;20196;-80
2023/06/16 15:03:58;;;;;;;26.42;24.30;;;32.10;40.70;;;;;;4878290;29;20637;-80
2023/06/16 15:06:24;;;;;;;19.08;17.92;;;32.80;41.00;;;;;;4878320;29;20196;-79
2023/06/16 15:08:51;;;;;;;8.63;7.50;;;34.00;39.20;;;;;;4876083;29;20242;-80
2023/06/16 15:11:18;;;;;;;8.07;5.32;;;34.40;38.90;;;;;;4877522;29;20267;-80
2023/06/16 15:13:44;;;;;;;9.43;5.70;;;34.00;38.20;;;;;;4877773;29;20748;-79
2023/06/16 15:16:11;;;;;;;9.05;5.78;;;33.40;38.20;;;;;;4885021;23;20232;-80
2023/06/16 15:18:38;;;;;;;13.48;5.68;;;33.30;38.80;;;;;;4883224;29;20199;-79
2023/06/16 15:21:05;;;;;;;5.80;5.40;;;33.40;38.40;;;;;;4870502;29;20196;-81
2023/06/16 15:23:31;;;;;;;8.88;6.30;;;33.60;37.90;;;;;;4868225;29;20196;-79
2023/06/16 15:25:57;;;;;;;7.18;6.00;;;33.60;38.00;;;;;;4885081;29;20230;-79
2023/06/16 15:28:22;;;;;;;5.40;4.90;;;33.90;37.60;;;;;;4889691;29;20203;-78
2023/06/16 15:30:48;;;;;;;7.57;5.38;;;33.80;37.90;;;;;;4876977;29;20227;-80
2023/06/16 15:33:14;;;;;;;8.40;6.18;;;33.90;37.50;;;;;;4890165;29;20238;-80
2023/06/16 15:35:40;;;;;;;7.15;6.60;;;33.90;37.60;;;;;;4879592;29;20236;-79
2023/06/16 15:38:08;;;;;;;10.23;9.50;;;34.20;37.00;;;;;;4883694;29;20248;-80